Twin Valley, Minnesota
Current Conditions -  °F | °C
As of 12:35 PM on Saturday 25 Oct 2014 (Local Time) from K3N8 Reporting Station
Clear Clear  
Wind Chill: 54°   Ceiling: Unl
Heat Index: 54°   Visibility: 10mi
Dew Point: 29°   Wind: 18mph
Humidity: 38%   Direction: 310°NW
Pressure: 30.07"   Gusts: 28mph
Location:  47.26°N, 96.26°W
Report Text: K3N8 251735Z AUTO 31016G24KT 10SM CLR 12/M02 A3007 RMK AO2 T01231016
Loading
Personal Weather Stations






























Interactive Weather Map
Tropical Storm Tracking
New forecast layout! Learn more

10-Day Weather Forecast

Advertisements
Track Severe Weather on mobile